Capitol Logistics 358




KBDL
Bradley International Airport
Windsor Locks, Connecticut
KMIA
Miami International Airport
Miami, Florida

Route Details

Aircraft Information
Group: Boeing Common
Types: B752,B762,B763
Route Data
Demand: M
Distance: 1041nm
Duration: 3h 20m
Recm'd Route: CSTL8 CCC GEDIC J174 SWL CEBEE WETRO DIW AR22 JORAY HILEY7
Origin Wx: KBDL 272151Z 17014KT 10SM BKN021 BKN160 BKN190 23/19 A2982 RMK AO2 SLP096 T02330189
Dest. Wx: KMIA 272153Z 15008G19KT 10SM FEW035 SCT100 SCT200 BKN250 29/22 A2996 RMK AO2 LTG DSNT NW SLP146 CB DSNT NW MOV NE T02890222 $
Notes:

Financial History
Total Freight: 173,180lbs
Average Load: 57,727lbs/flt
Fuel Used: 85,441lbs
Avg. Fuel Used: 28,480lbs/flt
Fuel Expense: $28,542
Avg. Fuel Expense: $9,514
Avg. Fuel Cost: $0.36/lbs
Total Gross Income: $407,729
Pilot Pay: $637
Total Expenses: $66,145
Total Revenue: $311,279
Average Revenue: $135,909.64